Time;durP1;ratioP1;P1;durP2;ratioP2;P2;SDS_P1;SDS_P2;PMS_P1;PMS_P2;Temp;Humidity;BMP_temperature;BMP_pressure;BME280_temperature;BME280_humidity;BME280_pressure;Samples;Min_cycle;Max_cycle;Signal;HPM_P1;HPM_P2
2022/04/09 00:02:10;;;;;;;;;;;;;;;;;;5032382;28;19917;-82
2022/04/09 00:04:57;;;;;;;;;;;;;;;;;;5003543;28;20310;-82
2022/04/09 00:07:43;;;;;;;;;;;;;;;;;;5029260;28;19932;-81
2022/04/09 00:10:30;;;;;;;;;;;;;;;;;;5031851;28;19909;-81
2022/04/09 00:13:16;;;;;;;;;;;;;;;;;;5018961;28;20312;-81
2022/04/09 00:16:03;;;;;;;;;;;;;;;;;;5018902;28;19921;-82
2022/04/09 00:18:49;;;;;;;;;;;;;;;;;;5027961;28;20289;-82
2022/04/09 00:21:36;;;;;;;;;;;;;;;;;;5013889;28;19917;-83
2022/04/09 00:24:22;;;;;;;;;;;;;;;;;;5024801;28;19909;-80
2022/04/09 00:27:09;;;;;;;;;;;;;;;;;;5033176;28;19925;-81
2022/04/09 00:29:55;;;;;;;;;;;;;;;;;;5017836;28;20373;-81
2022/04/09 00:32:42;;;;;;;;;;;;;;;;;;5030874;28;20336;-81
2022/04/09 00:35:28;;;;;;;;;;;;;;;;;;5027797;28;19909;-81
2022/04/09 00:38:14;;;;;;;;;;;;;;;;;;5030027;28;19920;-81
2022/04/09 00:41:01;;;;;;;;;;;;;;;;;;5034053;28;19924;-81
2022/04/09 00:43:47;;;;;;;;;;;;;;;;;;5021573;28;19920;-81
2022/04/09 00:46:34;;;;;;;;;;;;;;;;;;5027991;28;19925;-81
2022/04/09 00:49:20;;;;;;;;;;;;;;;;;;5013876;28;20397;-80
2022/04/09 00:52:07;;;;;;;;;;;;;;;;;;5022917;28;19928;-81
2022/04/09 00:54:53;;;;;;;;;;;;;;;;;;5025944;28;19920;-81
2022/04/09 00:57:40;;;;;;;;;;;;;;;;;;5019788;28;19919;-81
2022/04/09 01:00:26;;;;;;;;;;;;;;;;;;5035989;28;19913;-81
2022/04/09 01:03:13;;;;;;;;;;;;;;;;;;5037282;28;19913;-81
2022/04/09 01:05:59;;;;;;;;;;;;;;;;;;5031972;28;19928;-81
2022/04/09 01:08:46;;;;;;;;;;;;;;;;;;5034058;28;19909;-81
2022/04/09 01:11:32;;;;;;;;;;;;;;;;;;5038150;28;19917;-82
2022/04/09 01:14:19;;;;;;;;;;;;;;;;;;5024742;28;19917;-81
2022/04/09 01:17:05;;;;;;;;;;;;;;;;;;5018157;28;19916;-81
2022/04/09 01:19:51;;;;;;;;;;;;;;;;;;5018802;28;19919;-81
2022/04/09 01:22:38;;;;;;;;;;;;;;;;;;5032991;28;19952;-81
2022/04/09 01:25:24;;;;;;;;;;;;;;;;;;5036071;28;19913;-81
2022/04/09 01:28:11;;;;;;;;;;;;;;;;;;5034572;28;20083;-81
2022/04/09 01:30:57;;;;;;;;;;;;;;;;;;5037966;28;19913;-82
2022/04/09 01:33:44;;;;;;;;;;;;;;;;;;5034396;28;20400;-81
2022/04/09 01:36:30;;;;;;;;;;;;;;;;;;5022230;28;19921;-80
2022/04/09 01:39:18;;;;;;;;;;;;;;;;;;5015015;28;19912;-81
2022/04/09 01:42:10;;;;;;;;;;;;;;;;;;5028507;28;19917;-81
2022/04/09 01:44:56;;;;;;;;;;;;;;;;;;5028220;28;19921;-81
2022/04/09 01:47:43;;;;;;;;;;;;;;;;;;5007921;28;19929;-81
2022/04/09 01:50:30;;;;;;;;;;;;;;;;;;5037454;28;19919;-81
2022/04/09 01:53:16;;;;;;;;;;;;;;;;;;5032671;28;19924;-81
2022/04/09 01:56:03;;;;;;;;;;;;;;;;;;5022715;28;19919;-81
2022/04/09 01:58:49;;;;;;;;;;;;;;;;;;5043991;28;19920;-81
2022/04/09 02:01:36;;;;;;;;;;;;;;;;;;5033927;28;20405;-81
2022/04/09 02:04:22;;;;;;;;;;;;;;;;;;5036645;28;19921;-83
2022/04/09 02:07:09;;;;;;;;;;;;;;;;;;5033336;28;19929;-81
2022/04/09 02:09:55;;;;;;;;;;;;;;;;;;5028159;28;19913;-81
2022/04/09 02:12:42;;;;;;;;;;;;;;;;;;5038104;28;19921;-81
2022/04/09 02:15:28;;;;;;;;;;;;;;;;;;5029528;28;19915;-81
2022/04/09 02:18:15;;;;;;;;;;;;;;;;;;5035776;28;20303;-81
2022/04/09 02:21:01;;;;;;;;;;;;;;;;;;5033659;28;20483;-82
2022/04/09 02:23:48;;;;;;;;;;;;;;;;;;5033157;28;19936;-81
2022/04/09 02:26:34;;;;;;;;;;;;;;;;;;5033819;28;19958;-81
2022/04/09 02:29:21;;;;;;;;;;;;;;;;;;5017825;28;20289;-80
2022/04/09 02:32:07;;;;;;;;;;;;;;;;;;5029371;28;19920;-81
2022/04/09 02:34:55;;;;;;;;;;;;;;;;;;5033236;28;19916;-81
2022/04/09 02:37:42;;;;;;;;;;;;;;;;;;5023668;28;19913;-81
2022/04/09 02:40:28;;;;;;;;;;;;;;;;;;5030371;28;19924;-81
2022/04/09 02:43:15;;;;;;;;;;;;;;;;;;5022246;28;19952;-81
2022/04/09 02:46:01;;;;;;;;;;;;;;;;;;5016376;28;19913;-81
2022/04/09 02:48:48;;;;;;;;;;;;;;;;;;5032587;28;19912;-82
2022/04/09 02:51:34;;;;;;;;;;;;;;;;;;5031769;28;19917;-82
2022/04/09 02:54:21;;;;;;;;;;;;;;;;;;5026539;28;19917;-81
2022/04/09 02:57:07;;;;;;;;;;;;;;;;;;5024557;28;19913;-82
2022/04/09 02:59:54;;;;;;;;;;;;;;;;;;5018047;28;19913;-82
2022/04/09 03:02:40;;;;;;;;;;;;;;;;;;5033023;28;19988;-82
2022/04/09 03:05:27;;;;;;;;;;;;;;;;;;5027721;28;19909;-82
2022/04/09 03:08:13;;;;;;;;;;;;;;;;;;5030804;28;20440;-82
2022/04/09 03:11:00;;;;;;;;;;;;;;;;;;5025347;28;19916;-82
2022/04/09 03:13:46;;;;;;;;;;;;;;;;;;5016725;28;20018;-82
2022/04/09 03:16:33;;;;;;;;;;;;;;;;;;5027598;28;19913;-81
2022/04/09 03:19:19;;;;;;;;;;;;;;;;;;5013878;28;19916;-82
2022/04/09 03:22:06;;;;;;;;;;;;;;;;;;5024707;28;19970;-81
2022/04/09 03:24:52;;;;;;;;;;;;;;;;;;5026393;28;19920;-83
2022/04/09 03:27:39;;;;;;;;;;;;;;;;;;5020380;28;19929;-82
2022/04/09 03:30:25;;;;;;;;;;;;;;;;;;5020226;28;19914;-82
2022/04/09 03:33:12;;;;;;;;;;;;;;;;;;5019599;28;19940;-82
2022/04/09 03:35:58;;;;;;;;;;;;;;;;;;5025290;28;20378;-82
2022/04/09 03:38:45;;;;;;;;;;;;;;;;;;5015459;28;20296;-82
2022/04/09 03:41:31;;;;;;;;;;;;;;;;;;5030548;28;19913;-82
2022/04/09 03:44:18;;;;;;;;;;;;;;;;;;5001961;28;19932;-82
2022/04/09 03:47:05;;;;;;;;;;;;;;;;;;5024044;28;20277;-82
2022/04/09 03:49:51;;;;;;;;;;;;;;;;;;5014082;28;19909;-82
2022/04/09 03:52:38;;;;;;;;;;;;;;;;;;5030799;28;19909;-80
2022/04/09 03:55:25;;;;;;;;;;;;;;;;;;5024277;28;19920;-80
2022/04/09 03:58:11;;;;;;;;;;;;;;;;;;5032715;28;19916;-81
2022/04/09 04:00:58;;;;;;;;;;;;;;;;;;5030863;28;19913;-81
2022/04/09 04:03:45;;;;;;;;;;;;;;;;;;5020596;28;19924;-81
2022/04/09 04:06:31;;;;;;;;;;;;;;;;;;5026140;28;19921;-82
2022/04/09 04:09:18;;;;;;;;;;;;;;;;;;5021232;28;20305;-80
2022/04/09 04:12:04;;;;;;;;;;;;;;;;;;5019412;28;19917;-81
2022/04/09 04:14:51;;;;;;;;;;;;;;;;;;5015822;28;19909;-81
2022/04/09 04:17:38;;;;;;;;;;;;;;;;;;5022384;28;19913;-81
2022/04/09 04:20:25;;;;;;;;;;;;;;;;;;5019012;28;19913;-81
2022/04/09 04:23:11;;;;;;;;;;;;;;;;;;5016662;28;19913;-80
2022/04/09 04:25:57;;;;;;;;;;;;;;;;;;5020504;28;19914;-80
2022/04/09 04:28:48;;;;;;;;;;;;;;;;;;5018622;28;19932;-80
2022/04/09 04:31:34;;;;;;;;;;;;;;;;;;5025757;28;19918;-80
2022/04/09 04:34:21;;;;;;;;;;;;;;;;;;5022474;28;19918;-80
2022/04/09 04:37:07;;;;;;;;;;;;;;;;;;5017527;28;19913;-82
2022/04/09 04:39:54;;;;;;;;;;;;;;;;;;5015421;28;20591;-81
2022/04/09 04:42:40;;;;;;;;;;;;;;;;;;5017260;28;19922;-82
2022/04/09 04:45:27;;;;;;;;;;;;;;;;;;5026851;28;21609;-81
2022/04/09 04:48:13;;;;;;;;;;;;;;;;;;5028311;28;19928;-81
2022/04/09 04:51:00;;;;;;;;;;;;;;;;;;5035702;28;19920;-81
2022/04/09 04:53:46;;;;;;;;;;;;;;;;;;5040955;28;19920;-83
2022/04/09 04:56:33;;;;;;;;;;;;;;;;;;5034384;28;19928;-86
2022/04/09 04:59:19;;;;;;;;;;;;;;;;;;5033473;28;19951;-86
2022/04/09 05:02:06;;;;;;;;;;;;;;;;;;5031570;28;20305;-86
2022/04/09 05:04:52;;;;;;;;;;;;;;;;;;5038469;28;19913;-85
2022/04/09 05:07:39;;;;;;;;;;;;;;;;;;5027023;28;19921;-86
2022/04/09 05:10:27;;;;;;;;;;;;;;;;;;5026156;28;19924;-82
2022/04/09 05:13:13;;;;;;;;;;;;;;;;;;5037618;28;20369;-85
2022/04/09 05:16:00;;;;;;;;;;;;;;;;;;5030242;28;20314;-87
2022/04/09 05:18:46;;;;;;;;;;;;;;;;;;5015451;28;19917;-85
2022/04/09 05:21:33;;;;;;;;;;;;;;;;;;5032510;28;19913;-86
2022/04/09 05:24:19;;;;;;;;;;;;;;;;;;5036477;28;19912;-85
2022/04/09 05:27:05;;;;;;;;;;;;;;;;;;5012792;28;19932;-86
2022/04/09 05:29:52;;;;;;;;;;;;;;;;;;5012063;28;20280;-84
2022/04/09 05:32:39;;;;;;;;;;;;;;;;;;5028800;28;19921;-87
2022/04/09 05:35:26;;;;;;;;;;;;;;;;;;5026417;28;20564;-84
2022/04/09 05:38:12;;;;;;;;;;;;;;;;;;5024817;28;20450;-84
2022/04/09 05:40:59;;;;;;;;;;;;;;;;;;5030160;28;19939;-84
2022/04/09 05:43:45;;;;;;;;;;;;;;;;;;5016334;28;20482;-88
2022/04/09 05:46:32;;;;;;;;;;;;;;;;;;5013585;28;20240;-87
2022/04/09 05:49:20;;;;;;;;;;;;;;;;;;5035945;28;20237;-88
2022/04/09 05:52:07;;;;;;;;;;;;;;;;;;5018043;28;19913;-91
2022/04/09 05:54:54;;;;;;;;;;;;;;;;;;5023725;28;20415;-89
2022/04/09 05:57:41;;;;;;;;;;;;;;;;;;5024398;28;19915;-90
2022/04/09 06:00:27;;;;;;;;;;;;;;;;;;5034134;28;20246;-84
2022/04/09 06:03:14;;;;;;;;;;;;;;;;;;5026511;28;19913;-88
2022/04/09 06:06:01;;;;;;;;;;;;;;;;;;5028521;28;19909;-83
2022/04/09 06:08:48;;;;;;;;;;;;;;;;;;5020932;28;19917;-84
2022/04/09 06:11:34;;;;;;;;;;;;;;;;;;5025444;28;19913;-85
2022/04/09 06:14:21;;;;;;;;;;;;;;;;;;5024806;28;19920;-85
2022/04/09 06:17:07;;;;;;;;;;;;;;;;;;5013070;28;19910;-85
2022/04/09 06:19:54;;;;;;;;;;;;;;;;;;5028577;28;19935;-85
2022/04/09 06:22:40;;;;;;;;;;;;;;;;;;5035731;28;19910;-84
2022/04/09 06:25:28;;;;;;;;;;;;;;;;;;5024302;28;19909;-85
2022/04/09 06:28:14;;;;;;;;;;;;;;;;;;5025494;28;20277;-84
2022/04/09 06:31:01;;;;;;;;;;;;;;;;;;5029385;28;19936;-85
2022/04/09 06:33:47;;;;;;;;;;;;;;;;;;5028032;28;19920;-86
2022/04/09 06:36:34;;;;;;;;;;;;;;;;;;5026042;28;19913;-92
2022/04/09 06:39:20;;;;;;;;;;;;;;;;;;5033180;28;19909;-83
2022/04/09 06:42:07;;;;;;;;;;;;;;;;;;5034077;28;19913;-80
2022/04/09 06:44:54;;;;;;;;;;;;;;;;;;5035574;28;19909;-80
2022/04/09 06:47:41;;;;;;;;;;;;;;;;;;5034633;28;19921;-80
2022/04/09 06:50:27;;;;;;;;;;;;;;;;;;5024394;28;19920;-79
2022/04/09 06:53:14;;;;;;;;;;;;;;;;;;5010979;28;19910;-81
2022/04/09 06:56:00;;;;;;;;;;;;;;;;;;5026448;28;19920;-87
2022/04/09 06:58:47;;;;;;;;;;;;;;;;;;5015925;28;19917;-86
2022/04/09 07:01:33;;;;;;;;;;;;;;;;;;5032844;28;19913;-87
2022/04/09 07:04:20;;;;;;;;;;;;;;;;;;5035496;28;19913;-79
2022/04/09 07:07:06;;;;;;;;;;;;;;;;;;5042250;28;19928;-84
2022/04/09 07:09:53;;;;;;;;;;;;;;;;;;5029308;28;19915;-85
2022/04/09 07:12:39;;;;;;;;;;;;;;;;;;5032451;28;19909;-84
2022/04/09 07:15:26;;;;;;;;;;;;;;;;;;5042544;28;19917;-83
2022/04/09 07:18:12;;;;;;;;;;;;;;;;;;5016952;28;19913;-86
2022/04/09 07:20:59;;;;;;;;;;;;;;;;;;5032124;28;19921;-86
2022/04/09 07:23:45;;;;;;;;;;;;;;;;;;5022238;28;19917;-86
2022/04/09 07:26:32;;;;;;;;;;;;;;;;;;5032569;28;19936;-85
2022/04/09 07:29:18;;;;;;;;;;;;;;;;;;5023186;28;19921;-82
2022/04/09 07:32:05;;;;;;;;;;;;;;;;;;5037643;28;19959;-86
2022/04/09 07:34:51;;;;;;;;;;;;;;;;;;5038213;28;19917;-83
2022/04/09 07:37:38;;;;;;;;;;;;;;;;;;5038930;28;19924;-84
2022/04/09 07:40:24;;;;;;;;;;;;;;;;;;5035840;28;19910;-87
2022/04/09 07:43:11;;;;;;;;;;;;;;;;;;5020753;28;19913;-86
2022/04/09 07:45:57;;;;;;;;;;;;;;;;;;5021528;28;20003;-85
2022/04/09 07:48:43;;;;;;;;;;;;;;;;;;5026809;28;19922;-86
2022/04/09 07:51:30;;;;;;;;;;;;;;;;;;5022723;28;19924;-85
2022/04/09 07:54:16;;;;;;;;;;;;;;;;;;5020735;28;20289;-87
2022/04/09 07:57:03;;;;;;;;;;;;;;;;;;5021565;28;20460;-87
2022/04/09 07:59:49;;;;;;;;;;;;;;;;;;5030366;28;19919;-84
2022/04/09 08:02:36;;;;;;;;;;;;;;;;;;5038309;28;19913;-85
2022/04/09 08:05:23;;;;;;;;;;;;;;;;;;5015850;28;19913;-87
2022/04/09 08:08:09;;;;;;;;;;;;;;;;;;5025796;28;19940;-85
2022/04/09 08:10:56;;;;;;;;;;;;;;;;;;5021048;28;19921;-85
2022/04/09 08:13:42;;;;;;;;;;;;;;;;;;5021927;28;19920;-86
2022/04/09 08:16:29;;;;;;;;;;;;;;;;;;5027244;28;19913;-88
2022/04/09 08:19:15;;;;;;;;;;;;;;;;;;5034714;28;19921;-85
2022/04/09 08:22:02;;;;;;;;;;;;;;;;;;5029184;28;19913;-83
2022/04/09 08:24:51;;;;;;;;;;;;;;;;;;5040900;28;19912;-85
2022/04/09 08:27:38;;;;;;;;;;;;;;;;;;5035427;28;19925;-86
2022/04/09 08:30:25;;;;;;;;;;;;;;;;;;5035529;28;19913;-85
2022/04/09 08:33:17;;;;;;;;;;;;;;;;;;5045845;28;19924;-83
2022/04/09 08:36:07;;;;;;;;;;;;;;;;;;5035489;28;19919;-88
2022/04/09 08:38:55;;;;;;;;;;;;;;;;;;5043946;28;19913;-87
2022/04/09 08:41:44;;;;;;;;;;;;;;;;;;5039820;28;19917;-87
2022/04/09 08:44:31;;;;;;;;;;;;;;;;;;5032514;28;19919;-88
2022/04/09 08:47:17;;;;;;;;;;;;;;;;;;5034329;28;19917;-86
2022/04/09 08:50:04;;;;;;;;;;;;;;;;;;5030082;28;19913;-87
2022/04/09 08:52:50;;;;;;;;;;;;;;;;;;5017453;28;19913;-87
2022/04/09 08:55:37;;;;;;;;;;;;;;;;;;5035745;28;19909;-88
2022/04/09 08:58:23;;;;;;;;;;;;;;;;;;5047129;28;19913;-86
2022/04/09 09:01:10;;;;;;;;;;;;;;;;;;5034690;28;19913;-84
2022/04/09 09:03:57;;;;;;;;;;;;;;;;;;5043189;28;19921;-87
2022/04/09 09:06:45;;;;;;;;;;;;;;;;;;5022336;28;19920;-84
2022/04/09 09:09:32;;;;;;;;;;;;;;;;;;5043113;28;19917;-87
2022/04/09 09:12:18;;;;;;;;;;;;;;;;;;5024944;28;20293;-88
2022/04/09 09:15:07;;;;;;;;;;;;;;;;;;5027413;28;20401;-84
2022/04/09 09:17:54;;;;;;;;;;;;;;;;;;5030123;28;19919;-86
2022/04/09 09:20:43;;;;;;;;;;;;;;;;;;5033044;28;19939;-85
2022/04/09 09:23:30;;;;;;;;;;;;;;;;;;5028604;28;20277;-87
2022/04/09 09:26:16;;;;;;;;;;;;;;;;;;5031246;28;19940;-83
2022/04/09 09:29:02;;;;;;;;;;;;;;;;;;5029573;28;19928;-86
2022/04/09 09:31:50;;;;;;;;;;;;;;;;;;5030099;28;19924;-86
2022/04/09 09:34:46;;;;;;;;;;;;;;;;;;5036614;28;19913;-87
2022/04/09 09:37:33;;;;;;;;;;;;;;;;;;5029266;28;20246;-86
2022/04/09 09:40:19;;;;;;;;;;;;;;;;;;5030047;28;19928;-86
2022/04/09 09:43:06;;;;;;;;;;;;;;;;;;5031468;28;19927;-86
2022/04/09 09:45:53;;;;;;;;;;;;;;;;;;5019777;28;20415;-86
2022/04/09 09:48:39;;;;;;;;;;;;;;;;;;5028658;28;19929;-86
2022/04/09 09:51:29;;;;;;;;;;;;;;;;;;5024759;28;19959;-86
2022/04/09 09:54:15;;;;;;;;;;;;;;;;;;5027486;28;19960;-85
2022/04/09 09:57:02;;;;;;;;;;;;;;;;;;5025275;28;20218;-84
2022/04/09 09:59:48;;;;;;;;;;;;;;;;;;5031089;28;19924;-86
2022/04/09 10:02:35;;;;;;;;;;;;;;;;;;5044112;28;19909;-86
2022/04/09 10:05:23;;;;;;;;;;;;;;;;;;5039932;28;20249;-86
2022/04/09 10:08:09;;;;;;;;;;;;;;;;;;5031956;28;19931;-85
2022/04/09 10:10:57;;;;;;;;;;;;;;;;;;5043648;28;20652;-85
2022/04/09 10:13:43;;;;;;;;;;;;;;;;;;5042096;28;19909;-85
2022/04/09 10:16:30;;;;;;;;;;;;;;;;;;5028848;28;19913;-85
2022/04/09 10:19:17;;;;;;;;;;;;;;;;;;5024072;28;19919;-85
2022/04/09 10:22:03;;;;;;;;;;;;;;;;;;5044793;28;19919;-88
2022/04/09 10:24:50;;;;;;;;;;;;;;;;;;5043728;28;19920;-88
2022/04/09 10:27:37;;;;;;;;;;;;;;;;;;5034039;28;20293;-86
2022/04/09 10:30:28;;;;;;;;;;;;;;;;;;5023431;28;19913;-87
2022/04/09 10:33:14;;;;;;;;;;;;;;;;;;5014256;28;19920;-86
2022/04/09 10:36:02;;;;;;;;;;;;;;;;;;5016490;28;19918;-89
2022/04/09 10:38:48;;;;;;;;;;;;;;;;;;5009597;28;19922;-87
2022/04/09 10:41:35;;;;;;;;;;;;;;;;;;5008498;28;19913;-85
2022/04/09 10:44:21;;;;;;;;;;;;;;;;;;5006275;28;20399;-85
2022/04/09 10:47:08;;;;;;;;;;;;;;;;;;5007470;28;19921;-86
2022/04/09 10:49:54;;;;;;;;;;;;;;;;;;5014621;28;19913;-86
2022/04/09 10:52:41;;;;;;;;;;;;;;;;;;5016638;28;19911;-87
2022/04/09 10:55:31;;;;;;;;;;;;;;;;;;5007900;28;19924;-90
2022/04/09 10:58:17;;;;;;;;;;;;;;;;;;5013305;28;19921;-88
2022/04/09 11:01:04;;;;;;;;;;;;;;;;;;5009448;28;19933;-89
2022/04/09 11:03:50;;;;;;;;;;;;;;;;;;5007007;28;19918;-85
2022/04/09 11:06:44;;;;;;;;;;;;;;;;;;5013947;28;19924;-87
2022/04/09 11:09:31;;;;;;;;;;;;;;;;;;5015552;28;20399;-87
2022/04/09 11:12:19;;;;;;;;;;;;;;;;;;5010099;28;19924;-88
2022/04/09 11:15:07;;;;;;;;;;;;;;;;;;5002791;28;19919;-86
2022/04/09 11:17:53;;;;;;;;;;;;;;;;;;5009968;28;19910;-88
2022/04/09 11:20:40;;;;;;;;;;;;;;;;;;5015210;28;20370;-85
2022/04/09 11:23:26;;;;;;;;;;;;;;;;;;5013016;28;19909;-87
2022/04/09 11:26:17;;;;;;;;;;;;;;;;;;5011235;28;19910;-86
2022/04/09 11:29:03;;;;;;;;;;;;;;;;;;5010599;28;20377;-86
2022/04/09 11:31:50;;;;;;;;;;;;;;;;;;5030208;28;19919;-87
2022/04/09 11:34:36;;;;;;;;;;;;;;;;;;5019025;28;19909;-87
2022/04/09 11:37:23;;;;;;;;;;;;;;;;;;5046607;28;19919;-87
2022/04/09 11:40:09;;;;;;;;;;;;;;;;;;5042192;28;19912;-87
2022/04/09 11:42:55;;;;;;;;;;;;;;;;;;5024734;28;19916;-87
2022/04/09 11:45:42;;;;;;;;;;;;;;;;;;5027347;28;20342;-86
2022/04/09 11:48:28;;;;;;;;;;;;;;;;;;5036070;28;19916;-85
2022/04/09 11:51:15;;;;;;;;;;;;;;;;;;5038673;28;19909;-86
2022/04/09 11:54:01;;;;;;;;;;;;;;;;;;5038541;28;19915;-88
2022/04/09 11:56:48;;;;;;;;;;;;;;;;;;5033190;28;19914;-86
2022/04/09 11:59:35;;;;;;;;;;;;;;;;;;5033932;28;19919;-87
2022/04/09 12:02:21;;;;;;;;;;;;;;;;;;5030354;28;19923;-87
2022/04/09 12:05:08;;;;;;;;;;;;;;;;;;5022833;28;19913;-87
2022/04/09 12:07:55;;;;;;;;;;;;;;;;;;5019049;28;19940;-87
2022/04/09 12:10:41;;;;;;;;;;;;;;;;;;5028348;28;19913;-88
2022/04/09 12:13:28;;;;;;;;;;;;;;;;;;5033081;28;19935;-87
2022/04/09 12:16:15;;;;;;;;;;;;;;;;;;5026640;28;20284;-87
2022/04/09 12:19:01;;;;;;;;;;;;;;;;;;5030427;28;19909;-86
2022/04/09 12:21:48;;;;;;;;;;;;;;;;;;5028095;28;20098;-87
2022/04/09 12:24:34;;;;;;;;;;;;;;;;;;5032052;28;19920;-86
2022/04/09 12:27:21;;;;;;;;;;;;;;;;;;5033624;28;19927;-86
2022/04/09 12:30:07;;;;;;;;;;;;;;;;;;5012489;28;20335;-86
2022/04/09 12:32:53;;;;;;;;;;;;;;;;;;5014739;28;19914;-85
2022/04/09 12:35:40;;;;;;;;;;;;;;;;;;4994599;28;20283;-87
2022/04/09 12:38:26;;;;;;;;;;;;;;;;;;5010824;28;19920;-85
2022/04/09 12:41:13;;;;;;;;;;;;;;;;;;5016222;28;19916;-86
2022/04/09 12:44:00;;;;;;;;;;;;;;;;;;4998749;28;19913;-86
2022/04/09 12:46:47;;;;;;;;;;;;;;;;;;5013969;28;19921;-86
2022/04/09 12:49:33;;;;;;;;;;;;;;;;;;4996495;28;19940;-87
2022/04/09 12:52:20;;;;;;;;;;;;;;;;;;5009791;28;19913;-86
2022/04/09 12:55:06;;;;;;;;;;;;;;;;;;5016744;28;19910;-86
2022/04/09 12:57:53;;;;;;;;;;;;;;;;;;5014360;28;19932;-87
2022/04/09 13:00:40;;;;;;;;;;;;;;;;;;5013302;28;19916;-86
2022/04/09 13:03:26;;;;;;;;;;;;;;;;;;5013649;28;20363;-87
2022/04/09 13:06:13;;;;;;;;;;;;;;;;;;5006897;28;19918;-86
2022/04/09 13:09:00;;;;;;;;;;;;;;;;;;5029443;28;20270;-87
2022/04/09 13:11:47;;;;;;;;;;;;;;;;;;5024878;28;19917;-86
2022/04/09 13:14:33;;;;;;;;;;;;;;;;;;5010467;28;19910;-87
2022/04/09 13:17:20;;;;;;;;;;;;;;;;;;5012093;28;19913;-89
2022/04/09 13:20:06;;;;;;;;;;;;;;;;;;5002148;28;20378;-87
2022/04/09 13:23:02;;;;;;;;;;;;;;;;;;5011944;28;19917;-87
2022/04/09 13:25:50;;;;;;;;;;;;;;;;;;5007425;28;19914;-87
2022/04/09 13:28:37;;;;;;;;;;;;;;;;;;5024475;28;19921;-87
2022/04/09 13:31:28;;;;;;;;;;;;;;;;;;5026055;28;19915;-88
2022/04/09 13:34:17;;;;;;;;;;;;;;;;;;5020089;28;19913;-87
2022/04/09 13:37:06;;;;;;;;;;;;;;;;;;5013829;28;19910;-88
2022/04/09 13:39:52;;;;;;;;;;;;;;;;;;5031669;28;19932;-86
2022/04/09 13:42:39;;;;;;;;;;;;;;;;;;5035273;28;19908;-86
2022/04/09 13:45:25;;;;;;;;;;;;;;;;;;5030129;28;19914;-87
2022/04/09 13:48:12;;;;;;;;;;;;;;;;;;5033826;28;19932;-88
2022/04/09 13:50:58;;;;;;;;;;;;;;;;;;5017646;28;19925;-88
2022/04/09 13:53:44;;;;;;;;;;;;;;;;;;5029956;28;19909;-87
2022/04/09 13:56:31;;;;;;;;;;;;;;;;;;5031899;28;19967;-89
2022/04/09 13:59:18;;;;;;;;;;;;;;;;;;5026946;28;20320;-88
2022/04/09 14:02:04;;;;;;;;;;;;;;;;;;5036730;28;20307;-88
2022/04/09 14:04:51;;;;;;;;;;;;;;;;;;5047061;28;20258;-87
2022/04/09 14:07:37;;;;;;;;;;;;;;;;;;5037898;28;19928;-88
2022/04/09 14:10:24;;;;;;;;;;;;;;;;;;5046977;28;19920;-88
2022/04/09 14:13:10;;;;;;;;;;;;;;;;;;5038160;28;19917;-89
2022/04/09 14:15:57;;;;;;;;;;;;;;;;;;5034084;28;19924;-88
2022/04/09 14:18:43;;;;;;;;;;;;;;;;;;5038079;28;19921;-89
2022/04/09 14:21:30;;;;;;;;;;;;;;;;;;5021370;28;19913;-89
2022/04/09 14:24:16;;;;;;;;;;;;;;;;;;5039277;28;19914;-90
2022/04/09 14:27:03;;;;;;;;;;;;;;;;;;5033333;28;19913;-89
2022/04/09 14:29:49;;;;;;;;;;;;;;;;;;5039479;28;19927;-88
2022/04/09 14:32:36;;;;;;;;;;;;;;;;;;5029984;28;19909;-86
2022/04/09 14:35:27;;;;;;;;;;;;;;;;;;5037727;28;19913;-90
2022/04/09 14:38:13;;;;;;;;;;;;;;;;;;5033808;28;19914;-91
2022/04/09 14:41:00;;;;;;;;;;;;;;;;;;5038376;28;19910;-92
2022/04/09 14:43:46;;;;;;;;;;;;;;;;;;5031108;28;19928;-91
2022/04/09 14:46:33;;;;;;;;;;;;;;;;;;5039884;28;20389;-90
2022/04/09 14:49:19;;;;;;;;;;;;;;;;;;5038195;28;19921;-90
2022/04/09 14:52:07;;;;;;;;;;;;;;;;;;5046333;28;19913;-90
2022/04/09 14:54:53;;;;;;;;;;;;;;;;;;5031461;28;19913;-91
2022/04/09 14:57:40;;;;;;;;;;;;;;;;;;5038887;28;19935;-89
2022/04/09 15:00:26;;;;;;;;;;;;;;;;;;5032777;28;19913;-89
2022/04/09 15:03:12;;;;;;;;;;;;;;;;;;5041630;28;19913;-90
2022/04/09 15:06:00;;;;;;;;;;;;;;;;;;5039657;28;19913;-90
2022/04/09 15:08:47;;;;;;;;;;;;;;;;;;5040791;28;19917;-88
2022/04/09 15:11:33;;;;;;;;;;;;;;;;;;5042983;28;19917;-88
2022/04/09 15:14:20;;;;;;;;;;;;;;;;;;5041910;28;19913;-90
2022/04/09 15:17:07;;;;;;;;;;;;;;;;;;5049952;28;19909;-90
2022/04/09 15:19:53;;;;;;;;;;;;;;;;;;5029829;28;19910;-90
2022/04/09 15:22:40;;;;;;;;;;;;;;;;;;5043496;28;19913;-90
2022/04/09 15:25:27;;;;;;;;;;;;;;;;;;5042823;28;19919;-90
2022/04/09 15:28:14;;;;;;;;;;;;;;;;;;5035859;28;19928;-89
2022/04/09 15:31:01;;;;;;;;;;;;;;;;;;5031512;28;19916;-81
2022/04/09 15:33:48;;;;;;;;;;;;;;;;;;5024163;28;19913;-85
2022/04/09 15:36:34;;;;;;;;;;;;;;;;;;5027739;28;19924;-83
2022/04/09 15:39:20;;;;;;;;;;;;;;;;;;5023834;28;20373;-85
2022/04/09 15:42:07;;;;;;;;;;;;;;;;;;5032707;28;19920;-86
2022/04/09 15:44:57;;;;;;;;;;;;;;;;;;5025366;28;20293;-86
2022/04/09 15:47:43;;;;;;;;;;;;;;;;;;5039502;28;19925;-83
2022/04/09 15:50:33;;;;;;;;;;;;;;;;;;5030352;28;20316;-87
2022/04/09 15:53:19;;;;;;;;;;;;;;;;;;5041149;28;19913;-82
2022/04/09 15:56:12;;;;;;;;;;;;;;;;;;5042416;28;19921;-83
2022/04/09 15:59:05;;;;;;;;;;;;;;;;;;5049178;28;19920;-85
2022/04/09 16:01:51;;;;;;;;;;;;;;;;;;5026742;28;19914;-92
2022/04/09 16:04:38;;;;;;;;;;;;;;;;;;5032084;28;19917;-91
2022/04/09 16:07:24;;;;;;;;;;;;;;;;;;5030032;28;19925;-91
2022/04/09 16:10:11;;;;;;;;;;;;;;;;;;5029994;28;20196;-90
2022/04/09 16:12:57;;;;;;;;;;;;;;;;;;5028476;28;19932;-90
2022/04/09 16:15:44;;;;;;;;;;;;;;;;;;5037743;28;19914;-90
2022/04/09 16:18:30;;;;;;;;;;;;;;;;;;5040895;28;19909;-90
2022/04/09 16:21:20;;;;;;;;;;;;;;;;;;5035242;28;19923;-90
2022/04/09 16:24:07;;;;;;;;;;;;;;;;;;5033478;28;19923;-90
2022/04/09 16:26:56;;;;;;;;;;;;;;;;;;5050944;28;19909;-91
2022/04/09 16:29:52;;;;;;;;;;;;;;;;;;5037580;28;19928;-90
2022/04/09 16:32:38;;;;;;;;;;;;;;;;;;5028463;28;19913;-90
2022/04/09 16:35:25;;;;;;;;;;;;;;;;;;5041976;28;19909;-92
2022/04/09 16:38:14;;;;;;;;;;;;;;;;;;5043668;28;20427;-91
2022/04/09 16:41:01;;;;;;;;;;;;;;;;;;5026322;28;19931;-91
2022/04/09 16:43:47;;;;;;;;;;;;;;;;;;5037932;28;19973;-92
2022/04/09 16:46:34;;;;;;;;;;;;;;;;;;5048255;28;19916;-92
2022/04/09 16:49:20;;;;;;;;;;;;;;;;;;5030613;28;19918;-91
2022/04/09 16:52:07;;;;;;;;;;;;;;;;;;5039405;28;20262;-89
2022/04/09 16:54:53;;;;;;;;;;;;;;;;;;5024040;28;19909;-90
2022/04/09 16:57:40;;;;;;;;;;;;;;;;;;5044357;28;20510;-90
2022/04/09 17:00:26;;;;;;;;;;;;;;;;;;5045842;28;19909;-92
2022/04/09 17:03:13;;;;;;;;;;;;;;;;;;5042740;28;20253;-91
2022/04/09 17:05:59;;;;;;;;;;;;;;;;;;5032167;28;19916;-91
2022/04/09 17:08:46;;;;;;;;;;;;;;;;;;5029866;28;19924;-89
2022/04/09 17:11:32;;;;;;;;;;;;;;;;;;5051646;28;19909;-91
2022/04/09 17:14:19;;;;;;;;;;;;;;;;;;5044414;28;19913;-89
2022/04/09 17:17:05;;;;;;;;;;;;;;;;;;5042636;28;19913;-89
2022/04/09 17:19:52;;;;;;;;;;;;;;;;;;5024556;28;19913;-91
2022/04/09 17:22:38;;;;;;;;;;;;;;;;;;5038017;28;20339;-89
2022/04/09 17:25:25;;;;;;;;;;;;;;;;;;5027765;28;19909;-90
2022/04/09 17:28:13;;;;;;;;;;;;;;;;;;5018656;28;19929;-89
2022/04/09 17:31:02;;;;;;;;;;;;;;;;;;5019594;28;19909;-90
2022/04/09 17:33:48;;;;;;;;;;;;;;;;;;5023662;28;19913;-89
2022/04/09 17:36:35;;;;;;;;;;;;;;;;;;5019120;28;19916;-91
2022/04/09 17:39:21;;;;;;;;;;;;;;;;;;5036079;28;19916;-89
2022/04/09 17:42:08;;;;;;;;;;;;;;;;;;5019601;28;19913;-89
2022/04/09 17:44:54;;;;;;;;;;;;;;;;;;5032315;28;19909;-91
2022/04/09 17:47:41;;;;;;;;;;;;;;;;;;5025034;28;19918;-89
2022/04/09 17:50:27;;;;;;;;;;;;;;;;;;5030831;28;19917;-90
2022/04/09 17:53:14;;;;;;;;;;;;;;;;;;5033545;28;19919;-90
2022/04/09 17:56:00;;;;;;;;;;;;;;;;;;5022610;28;19913;-91
2022/04/09 17:58:47;;;;;;;;;;;;;;;;;;5036797;28;20467;-90
2022/04/09 18:01:33;;;;;;;;;;;;;;;;;;5034080;28;19919;-92
2022/04/09 18:04:22;;;;;;;;;;;;;;;;;;5028451;28;20016;-91
2022/04/09 18:07:09;;;;;;;;;;;;;;;;;;5042968;28;19924;-89
2022/04/09 18:09:55;;;;;;;;;;;;;;;;;;5044168;28;19924;-89
2022/04/09 18:12:42;;;;;;;;;;;;;;;;;;5023620;28;19913;-90
2022/04/09 18:15:29;;;;;;;;;;;;;;;;;;5032413;28;19909;-89
2022/04/09 18:18:15;;;;;;;;;;;;;;;;;;5020100;28;19913;-89
2022/04/09 18:21:02;;;;;;;;;;;;;;;;;;5019065;28;19919;-90
2022/04/09 18:23:48;;;;;;;;;;;;;;;;;;5015415;28;19920;-90
2022/04/09 18:26:35;;;;;;;;;;;;;;;;;;5015081;28;19909;-90
2022/04/09 18:29:21;;;;;;;;;;;;;;;;;;5031908;28;19932;-90
2022/04/09 18:32:08;;;;;;;;;;;;;;;;;;5035042;28;20608;-90
2022/04/09 18:34:54;;;;;;;;;;;;;;;;;;5050965;28;19909;-90
2022/04/09 18:37:41;;;;;;;;;;;;;;;;;;5025774;28;19913;-90
2022/04/09 18:40:27;;;;;;;;;;;;;;;;;;5034576;28;19909;-90
2022/04/09 18:43:14;;;;;;;;;;;;;;;;;;5054392;28;19909;-89
2022/04/09 18:46:00;;;;;;;;;;;;;;;;;;5039999;28;19909;-90
2022/04/09 18:48:47;;;;;;;;;;;;;;;;;;5024235;28;20377;-89
2022/04/09 18:51:33;;;;;;;;;;;;;;;;;;5052562;28;19909;-90
2022/04/09 18:54:20;;;;;;;;;;;;;;;;;;5022610;28;19968;-88
2022/04/09 18:57:06;;;;;;;;;;;;;;;;;;5034189;28;19915;-89
2022/04/09 18:59:53;;;;;;;;;;;;;;;;;;5027734;28;19909;-90